Terminal Aerodrome Forecast
Issued by NWS

Home | Current Version | Previous Version | Text Only | Print | Product List | Glossary On
Versions: 1 2 3 4 5 6 7 8 9 10 11 12 13 14 15 16 17
000
FTUS46 KSEW 191733
TAFBLI
TAF
KBLI 191733Z 1918/2018 16014G25KT P6SM -SHRA BKN028 OVC035
     FM200200 16013G19KT P6SM VCSH OVC019
     FM200900 07011G17KT P6SM VCSH SCT030 BKN050=

USA.gov is the U.S. government's official web portal to all federal, state and local government web resources and services.